Time;durP1;ratioP1;P1;durP2;ratioP2;P2;SDS_P1;SDS_P2;PMS_P1;PMS_P2;Temp;Humidity;BMP_temperature;BMP_pressure;BME280_temperature;BME280_humidity;BME280_pressure;Samples;Min_cycle;Max_cycle;Signal;HPM_P1;HPM_P2
2023/07/30 00:02:02;;;;;;;3.27;1.87;;;18.00;90.60;;;;;;5068548;28;20215;-75
2023/07/30 00:04:28;;;;;;;4.40;2.03;;;18.00;90.40;;;;;;5068090;28;20222;-76
2023/07/30 00:06:53;;;;;;;3.50;2.07;;;17.90;90.20;;;;;;5072180;28;20612;-77
2023/07/30 00:09:19;;;;;;;3.90;1.80;;;17.90;90.20;;;;;;5068508;28;20193;-77
2023/07/30 00:11:44;;;;;;;2.60;1.57;;;17.80;90.40;;;;;;5071662;28;20206;-76
2023/07/30 00:14:10;;;;;;;6.37;1.60;;;17.80;90.20;;;;;;5075749;28;20192;-78
2023/07/30 00:16:36;;;;;;;1.50;1.23;;;17.70;89.70;;;;;;5072775;28;20247;-77
2023/07/30 00:19:01;;;;;;;1.60;0.97;;;17.60;89.30;;;;;;5065271;28;20571;-78
2023/07/30 00:21:27;;;;;;;1.47;0.93;;;17.60;88.90;;;;;;5071125;28;20615;-78
2023/07/30 00:23:52;;;;;;;5.53;1.10;;;17.50;87.70;;;;;;5076777;28;20195;-77
2023/07/30 00:26:18;;;;;;;1.60;1.07;;;17.50;86.90;;;;;;5071387;28;21006;-77
2023/07/30 00:28:43;;;;;;;3.87;1.60;;;17.60;86.90;;;;;;5070565;28;20188;-75
2023/07/30 00:31:09;;;;;;;3.60;1.70;;;17.70;87.10;;;;;;5062697;28;20208;-74
2023/07/30 00:33:35;;;;;;;3.70;1.90;;;17.90;87.60;;;;;;5069520;28;20222;-77
2023/07/30 00:36:00;;;;;;;2.63;2.00;;;17.90;87.70;;;;;;5070708;28;20191;-77
2023/07/30 00:38:26;;;;;;;4.30;2.40;;;18.00;88.30;;;;;;5072238;28;20724;-77
2023/07/30 00:40:51;;;;;;;4.13;2.30;;;18.00;88.40;;;;;;5067277;28;20681;-77
2023/07/30 00:43:17;;;;;;;5.90;2.70;;;18.00;88.70;;;;;;5070155;28;20184;-77
2023/07/30 00:45:44;;;;;;;6.03;2.80;;;18.00;89.00;;;;;;5074952;28;20203;-76
2023/07/30 00:48:14;;;;;;;5.10;2.30;;;18.00;89.50;;;;;;5069527;28;20741;-77
2023/07/30 00:50:40;;;;;;;4.33;2.57;;;18.10;89.50;;;;;;5059920;28;20468;-76
2023/07/30 00:53:09;;;;;;;4.00;2.43;;;18.10;89.70;;;;;;5070445;28;20747;-78
2023/07/30 00:55:35;;;;;;;5.77;2.80;;;18.10;89.90;;;;;;5065665;28;20426;-77
2023/07/30 00:58:02;;;;;;;8.30;3.30;;;18.10;89.90;;;;;;5070884;28;20830;-76
2023/07/30 01:00:29;;;;;;;6.13;3.87;;;18.20;90.00;;;;;;5069039;28;20472;-77
2023/07/30 01:02:55;;;;;;;6.63;3.77;;;18.20;90.00;;;;;;5065340;28;20436;-77
2023/07/30 01:05:21;;;;;;;5.87;3.33;;;18.20;90.10;;;;;;5075420;28;20453;-76
2023/07/30 01:07:47;;;;;;;7.20;4.00;;;18.20;90.30;;;;;;5078193;28;20427;-78
2023/07/30 01:10:12;;;;;;;5.30;3.43;;;18.30;90.20;;;;;;5071772;28;21080;-77
2023/07/30 01:12:39;;;;;;;4.67;3.50;;;18.10;90.30;;;;;;5060562;28;20235;-76
2023/07/30 01:15:07;;;;;;;7.57;4.27;;;18.20;90.60;;;;;;5069818;28;20191;-76
2023/07/30 01:17:33;;;;;;;4.97;3.43;;;18.30;90.60;;;;;;5069591;28;20987;-77
2023/07/30 01:19:58;;;;;;;5.90;4.43;;;18.30;90.50;;;;;;5061445;28;20866;-76
2023/07/30 01:22:24;;;;;;;7.73;3.47;;;18.30;90.50;;;;;;5072104;28;20519;-78
2023/07/30 01:24:50;;;;;;;6.90;3.70;;;18.40;90.40;;;;;;5071269;28;20180;-77
2023/07/30 01:27:24;;;;;;;8.67;4.23;;;18.40;90.40;;;;;;5072208;28;20335;-77
2023/07/30 01:30:00;;;;;;;8.43;3.67;;;18.40;90.20;;;;;;5070203;28;20245;-78
2023/07/30 01:32:28;;;;;;;7.07;4.40;;;18.40;90.20;;;;;;5065268;28;20421;-78
2023/07/30 01:34:56;;;;;;;6.93;3.60;;;18.40;90.30;;;;;;5067882;28;20427;-76
2023/07/30 01:37:22;;;;;;;7.20;4.20;;;18.40;90.40;;;;;;5072806;28;20842;-79
2023/07/30 01:39:49;;;;;;;9.90;4.33;;;18.50;90.40;;;;;;5068736;28;20830;-76
2023/07/30 01:42:15;;;;;;;5.97;4.03;;;18.40;90.30;;;;;;5062188;28;20449;-76
2023/07/30 01:44:41;;;;;;;7.23;4.17;;;18.50;90.30;;;;;;5066966;28;20431;-76
2023/07/30 01:47:07;;;;;;;7.50;3.90;;;18.40;90.30;;;;;;5064273;28;20428;-76
2023/07/30 01:49:32;;;;;;;6.20;3.97;;;18.50;90.30;;;;;;5069308;28;20606;-76
2023/07/30 01:51:58;;;;;;;7.63;4.07;;;18.50;90.10;;;;;;5061600;28;20212;-76
2023/07/30 01:54:24;;;;;;;8.10;4.13;;;18.50;90.10;;;;;;5063331;28;20185;-74
2023/07/30 01:56:50;;;;;;;7.50;4.37;;;18.40;90.10;;;;;;5069382;28;20580;-77
2023/07/30 01:59:15;;;;;;;10.03;4.70;;;18.50;90.20;;;;;;5071952;28;20418;-78
2023/07/30 02:01:42;;;;;;;6.13;4.07;;;18.50;90.30;;;;;;5066970;28;20213;-78
2023/07/30 02:04:07;;;;;;;10.27;4.47;;;18.50;90.50;;;;;;5072188;28;20192;-78
2023/07/30 02:06:33;;;;;;;7.23;4.57;;;18.50;90.60;;;;;;5076277;28;20783;-78
2023/07/30 02:08:58;;;;;;;6.80;4.20;;;18.60;90.70;;;;;;5073702;28;20250;-78
2023/07/30 02:11:24;;;;;;;7.63;4.67;;;18.60;90.80;;;;;;5068870;28;20569;-77
2023/07/30 02:13:50;;;;;;;8.00;4.80;;;18.70;90.70;;;;;;5078247;28;20285;-79
2023/07/30 02:16:15;;;;;;;7.83;4.90;;;18.70;90.60;;;;;;5083488;28;20360;-78
2023/07/30 02:18:44;;;;;;;9.67;5.43;;;18.70;90.30;;;;;;5077154;28;20555;-77
2023/07/30 02:21:09;;;;;;;8.33;4.33;;;18.70;90.10;;;;;;5069861;28;20583;-78
2023/07/30 02:23:35;;;;;;;6.50;3.90;;;18.70;90.10;;;;;;5071870;28;20438;-78
2023/07/30 02:26:01;;;;;;;6.80;4.03;;;18.70;90.10;;;;;;5070402;28;20248;-77
2023/07/30 02:28:26;;;;;;;7.43;4.70;;;18.70;90.00;;;;;;5069951;28;20208;-78
2023/07/30 02:30:52;;;;;;;6.40;4.47;;;18.70;89.90;;;;;;5069857;28;20205;-77
2023/07/30 02:33:17;;;;;;;8.23;4.70;;;18.60;89.90;;;;;;5054489;28;20740;-77
2023/07/30 02:35:43;;;;;;;7.93;4.70;;;18.60;89.90;;;;;;5073003;28;20230;-78
2023/07/30 02:38:09;;;;;;;6.47;4.00;;;18.70;90.10;;;;;;5068538;28;20234;-77
2023/07/30 02:40:35;;;;;;;7.23;4.37;;;18.70;90.10;;;;;;5066953;28;21002;-76
2023/07/30 02:43:00;;;;;;;8.27;4.23;;;18.70;90.10;;;;;;5072726;28;20274;-77
2023/07/30 02:45:26;;;;;;;5.83;3.70;;;18.70;89.90;;;;;;5078465;28;20199;-77
2023/07/30 02:47:52;;;;;;;7.60;4.60;;;18.70;89.60;;;;;;5074133;28;20186;-76
2023/07/30 02:50:17;;;;;;;5.77;4.33;;;18.70;89.50;;;;;;5063966;28;20216;-78
2023/07/30 02:52:43;;;;;;;7.03;4.83;;;18.60;89.30;;;;;;5071388;28;20213;-76
2023/07/30 02:55:09;;;;;;;5.53;3.93;;;18.50;89.30;;;;;;5068026;28;20288;-76
2023/07/30 02:57:34;;;;;;;5.73;4.00;;;18.50;89.20;;;;;;5070112;28;20225;-75
2023/07/30 03:00:00;;;;;;;5.67;3.47;;;18.50;89.30;;;;;;5069626;28;20192;-75
2023/07/30 03:02:25;;;;;;;6.50;4.57;;;18.50;89.30;;;;;;5067137;28;20180;-75
2023/07/30 03:04:51;;;;;;;6.03;3.83;;;18.50;89.00;;;;;;5073178;28;20231;-75
2023/07/30 03:07:18;;;;;;;7.90;4.43;;;18.50;89.00;;;;;;5072017;28;20191;-76
2023/07/30 03:09:43;;;;;;;7.23;4.67;;;18.40;89.20;;;;;;5071840;28;20278;-77
2023/07/30 03:12:09;;;;;;;7.40;4.50;;;18.40;89.50;;;;;;5068354;28;20574;-76
2023/07/30 03:14:35;;;;;;;8.97;4.83;;;18.40;89.60;;;;;;5071439;28;20184;-76
2023/07/30 03:17:00;;;;;;;8.33;4.33;;;18.40;89.70;;;;;;5069554;28;20234;-76
2023/07/30 03:19:26;;;;;;;5.70;3.97;;;18.40;89.70;;;;;;5071618;28;20196;-75
2023/07/30 03:21:51;;;;;;;5.43;3.50;;;18.40;89.70;;;;;;5066210;28;20251;-76
2023/07/30 03:24:17;;;;;;;7.63;3.73;;;18.50;89.70;;;;;;5067532;28;20189;-75
2023/07/30 03:26:42;;;;;;;8.03;4.37;;;18.50;89.70;;;;;;5072075;28;20188;-76
2023/07/30 03:29:08;;;;;;;5.50;3.20;;;18.50;89.70;;;;;;5070935;28;20179;-76
2023/07/30 03:31:34;;;;;;;6.00;4.40;;;18.50;89.70;;;;;;5066809;28;20208;-76
2023/07/30 03:33:59;;;;;;;9.27;4.53;;;18.50;89.90;;;;;;5065422;28;20235;-76
2023/07/30 03:36:25;;;;;;;7.67;4.40;;;18.60;89.90;;;;;;5069780;28;20220;-75
2023/07/30 03:38:50;;;;;;;8.37;4.40;;;18.50;89.70;;;;;;5062968;28;20184;-76
2023/07/30 03:41:16;;;;;;;6.67;4.37;;;18.40;89.70;;;;;;5062304;28;20231;-75
2023/07/30 03:43:41;;;;;;;6.77;5.17;;;18.50;90.00;;;;;;5061826;28;20193;-76
2023/07/30 03:46:07;;;;;;;5.10;3.80;;;18.50;89.90;;;;;;5071284;28;20625;-74
2023/07/30 03:48:33;;;;;;;6.60;4.20;;;18.50;89.50;;;;;;5074738;28;20194;-77
2023/07/30 03:50:58;;;;;;;6.27;4.23;;;18.50;88.60;;;;;;5070166;28;20219;-76
2023/07/30 03:53:24;;;;;;;6.17;3.90;;;18.50;88.30;;;;;;5071673;28;20530;-77
2023/07/30 03:55:49;;;;;;;8.33;4.57;;;18.50;88.40;;;;;;5071245;28;20232;-77
2023/07/30 03:58:15;;;;;;;12.50;5.03;;;18.50;88.60;;;;;;5070928;28;20274;-76
2023/07/30 04:00:41;;;;;;;6.80;4.17;;;18.40;88.60;;;;;;5066609;28;20250;-76
2023/07/30 04:03:06;;;;;;;6.43;3.90;;;18.40;88.70;;;;;;5071298;28;20207;-76
2023/07/30 04:05:32;;;;;;;7.83;4.57;;;18.40;89.00;;;;;;5071036;28;20188;-77
2023/07/30 04:07:58;;;;;;;6.37;4.27;;;18.30;89.30;;;;;;5072706;28;20223;-78
2023/07/30 04:10:23;;;;;;;6.37;3.87;;;18.30;89.50;;;;;;5070450;28;20220;-77
2023/07/30 04:12:49;;;;;;;8.07;5.30;;;18.30;89.70;;;;;;5070866;28;20236;-79
2023/07/30 04:15:15;;;;;;;4.60;2.93;;;18.30;90.10;;;;;;5071774;28;20194;-78
2023/07/30 04:17:41;;;;;;;6.27;3.60;;;18.30;90.20;;;;;;5067812;28;20777;-78
2023/07/30 04:20:09;;;;;;;6.67;3.73;;;18.30;90.10;;;;;;5066354;28;20585;-79
2023/07/30 04:22:35;;;;;;;7.97;3.90;;;18.30;90.00;;;;;;5072591;28;20505;-78
2023/07/30 04:25:01;;;;;;;4.50;2.90;;;18.30;89.90;;;;;;5065089;28;20995;-78
2023/07/30 04:27:26;;;;;;;4.87;3.13;;;18.40;89.60;;;;;;5067578;28;20529;-77
2023/07/30 04:29:52;;;;;;;5.53;2.83;;;18.40;89.30;;;;;;5072606;28;20198;-76
2023/07/30 04:32:17;;;;;;;4.70;3.00;;;18.40;88.10;;;;;;5071462;28;20204;-77
2023/07/30 04:34:43;;;;;;;4.03;2.80;;;18.40;88.10;;;;;;5070058;28;20198;-78
2023/07/30 04:37:08;;;;;;;6.07;3.07;;;18.40;88.30;;;;;;5071009;28;20216;-76
2023/07/30 04:39:35;;;;;;;4.07;3.03;;;18.50;88.40;;;;;;5069463;28;20239;-77
2023/07/30 04:42:02;;;;;;;6.83;3.63;;;18.50;88.30;;;;;;5064943;22;20254;-75
2023/07/30 04:44:27;;;;;;;4.90;3.27;;;18.50;88.30;;;;;;5054094;28;20445;-76
2023/07/30 04:46:53;;;;;;;5.40;3.20;;;18.60;88.30;;;;;;5053751;28;20475;-75
2023/07/30 04:49:18;;;;;;;4.30;3.23;;;18.50;88.10;;;;;;5052714;28;20642;-76
2023/07/30 04:51:44;;;;;;;5.27;3.63;;;18.50;88.30;;;;;;5048772;28;20727;-74
2023/07/30 04:54:10;;;;;;;4.43;3.00;;;18.60;88.90;;;;;;5053571;28;20192;-75
2023/07/30 04:56:36;;;;;;;4.97;3.60;;;18.70;89.00;;;;;;5048163;28;20226;-71
2023/07/30 04:59:02;;;;;;;4.27;3.10;;;18.60;89.00;;;;;;5053067;28;20199;-72
2023/07/30 05:01:28;;;;;;;6.33;3.90;;;18.70;89.30;;;;;;5045466;28;20474;-72
2023/07/30 05:03:53;;;;;;;5.37;3.97;;;18.80;88.90;;;;;;5048989;28;20431;-72
2023/07/30 05:06:19;;;;;;;11.53;4.00;;;18.80;88.60;;;;;;5060353;28;20481;-73
2023/07/30 05:08:45;;;;;;;6.57;4.10;;;18.90;88.10;;;;;;5062207;28;20194;-72
2023/07/30 05:11:10;;;;;;;6.30;3.30;;;19.00;88.00;;;;;;5051666;28;20231;-71
2023/07/30 05:13:36;;;;;;;7.60;3.70;;;19.00;87.80;;;;;;5056787;28;20184;-72
2023/07/30 05:16:02;;;;;;;6.93;4.03;;;19.00;88.00;;;;;;5056926;28;20223;-74
2023/07/30 05:18:28;;;;;;;6.00;3.27;;;18.90;88.00;;;;;;5030222;28;20291;-73
2023/07/30 05:20:54;;;;;;;5.67;3.90;;;18.90;88.00;;;;;;5045159;28;20300;-74
2023/07/30 05:23:20;;;;;;;4.30;3.00;;;18.90;87.80;;;;;;5060681;28;20231;-73
2023/07/30 05:25:46;;;;;;;5.40;3.93;;;18.90;87.60;;;;;;5063133;28;20435;-74
2023/07/30 05:28:12;;;;;;;6.33;3.20;;;18.90;87.70;;;;;;5055662;28;20495;-74
2023/07/30 05:30:37;;;;;;;6.03;3.30;;;19.00;87.30;;;;;;5057033;28;20201;-74
2023/07/30 05:33:03;;;;;;;6.37;4.03;;;19.00;87.10;;;;;;5053305;28;21092;-74
2023/07/30 05:35:29;;;;;;;5.53;3.50;;;19.00;87.00;;;;;;5042262;28;20192;-70
2023/07/30 05:37:55;;;;;;;5.60;3.60;;;19.10;87.00;;;;;;5046409;28;20242;-73
2023/07/30 05:40:21;;;;;;;3.80;3.00;;;19.10;87.10;;;;;;5047547;28;20259;-73
2023/07/30 05:42:46;;;;;;;4.90;3.20;;;19.00;86.90;;;;;;5044351;28;20267;-73
2023/07/30 05:45:12;;;;;;;4.30;3.17;;;19.00;86.80;;;;;;5038067;28;21195;-73
2023/07/30 05:47:38;;;;;;;6.70;3.30;;;19.00;86.00;;;;;;5045530;28;20198;-72
2023/07/30 05:50:04;;;;;;;4.70;2.93;;;19.00;86.20;;;;;;5042675;28;20583;-73
2023/07/30 05:52:29;;;;;;;7.77;3.00;;;19.00;86.50;;;;;;5050766;28;20236;-73
2023/07/30 05:54:55;;;;;;;6.43;3.57;;;19.00;86.60;;;;;;5045368;28;20431;-71
2023/07/30 05:57:20;;;;;;;5.80;3.80;;;19.00;86.90;;;;;;5049485;28;20589;-73
2023/07/30 05:59:46;;;;;;;6.10;3.57;;;19.00;87.00;;;;;;5051275;28;20242;-71
2023/07/30 06:02:12;;;;;;;6.30;3.40;;;18.90;87.30;;;;;;5043083;28;20625;-73
2023/07/30 06:04:38;;;;;;;4.47;3.00;;;19.00;87.60;;;;;;5043979;28;20190;-73
2023/07/30 06:07:04;;;;;;;29.17;12.10;;;19.00;87.70;;;;;;5049116;28;20253;-72
2023/07/30 06:09:29;;;;;;;31.00;15.10;;;19.00;87.80;;;;;;5048913;28;20190;-74
2023/07/30 06:11:57;;;;;;;10.80;5.90;;;19.10;88.10;;;;;;5045594;28;20602;-73
2023/07/30 06:14:23;;;;;;;9.43;4.50;;;19.30;88.30;;;;;;5044396;28;20299;-72
2023/07/30 06:16:49;;;;;;;6.50;3.47;;;19.40;87.80;;;;;;5051510;28;20488;-73
2023/07/30 06:19:18;;;;;;;6.40;3.50;;;19.30;85.90;;;;;;5040238;28;20433;-72
2023/07/30 06:21:43;;;;;;;5.50;3.40;;;19.40;85.90;;;;;;5037519;28;20670;-72
2023/07/30 06:24:09;;;;;;;4.00;3.20;;;19.40;85.50;;;;;;5045668;28;20427;-75
2023/07/30 06:26:35;;;;;;;6.53;3.67;;;19.40;85.70;;;;;;5031862;28;20242;-74
2023/07/30 06:29:01;;;;;;;8.53;3.70;;;19.40;85.70;;;;;;5024829;28;20264;-75
2023/07/30 06:31:26;;;;;;;5.20;3.37;;;19.40;85.70;;;;;;5047069;28;20293;-73
2023/07/30 06:33:52;;;;;;;6.23;3.20;;;19.40;85.90;;;;;;5050454;28;20196;-72
2023/07/30 06:36:18;;;;;;;4.47;3.03;;;19.40;85.90;;;;;;5049068;28;20531;-74
2023/07/30 06:38:43;;;;;;;5.07;3.20;;;19.50;85.90;;;;;;5048098;28;20234;-73
2023/07/30 06:41:09;;;;;;;3.77;2.57;;;19.40;84.70;;;;;;5047778;28;20208;-75
2023/07/30 06:43:34;;;;;;;4.80;3.23;;;19.50;84.90;;;;;;5046163;28;20279;-74
2023/07/30 06:46:00;;;;;;;7.00;2.40;;;19.50;84.60;;;;;;5049960;28;20196;-73
2023/07/30 06:48:26;;;;;;;3.57;2.50;;;19.50;83.70;;;;;;5051528;28;20282;-73
2023/07/30 06:50:51;;;;;;;4.43;2.40;;;19.50;84.00;;;;;;5042394;28;20242;-73
2023/07/30 06:53:17;;;;;;;3.00;2.20;;;19.50;84.00;;;;;;5051800;28;20180;-75
2023/07/30 06:55:43;;;;;;;5.40;2.77;;;19.50;83.80;;;;;;5050228;28;20244;-73
2023/07/30 06:58:08;;;;;;;5.77;2.93;;;19.60;83.70;;;;;;5050669;28;20297;-74
2023/07/30 07:00:34;;;;;;;5.93;2.53;;;19.60;83.70;;;;;;5044155;28;20479;-73
2023/07/30 07:03:00;;;;;;;4.03;2.23;;;19.70;83.40;;;;;;5052257;28;20188;-74
2023/07/30 07:05:25;;;;;;;4.00;2.33;;;19.70;83.10;;;;;;5051307;28;20298;-76
2023/07/30 07:07:51;;;;;;;3.40;2.53;;;19.70;83.30;;;;;;5046024;28;20199;-76
2023/07/30 07:10:17;;;;;;;3.73;2.27;;;19.70;83.40;;;;;;5047722;28;20219;-76
2023/07/30 07:12:42;;;;;;;3.30;2.30;;;19.70;83.10;;;;;;5048887;28;20192;-77
2023/07/30 07:15:08;;;;;;;4.93;2.40;;;19.80;82.50;;;;;;5055804;28;20194;-76
2023/07/30 07:17:35;;;;;;;3.60;2.23;;;19.80;82.70;;;;;;5048733;28;20221;-75
2023/07/30 07:20:01;;;;;;;2.50;1.93;;;19.80;82.80;;;;;;5053447;28;20199;-75
2023/07/30 07:22:26;;;;;;;3.03;2.00;;;19.80;83.00;;;;;;5058890;28;20483;-75
2023/07/30 07:24:52;;;;;;;5.37;2.80;;;19.90;83.30;;;;;;5066929;28;20181;-78
2023/07/30 07:27:19;;;;;;;5.40;2.57;;;20.00;83.00;;;;;;5038096;28;20207;-78
2023/07/30 07:29:45;;;;;;;5.53;2.30;;;20.10;82.50;;;;;;5049641;28;20436;-78
2023/07/30 07:32:10;;;;;;;3.60;2.33;;;20.00;82.40;;;;;;5043716;28;20453;-78
2023/07/30 07:34:37;;;;;;;3.60;2.37;;;20.00;83.30;;;;;;5058162;28;20431;-79
2023/07/30 07:37:03;;;;;;;4.40;3.00;;;19.90;83.60;;;;;;5058888;28;20755;-79
2023/07/30 07:39:28;;;;;;;2.23;1.80;;;19.90;84.10;;;;;;5059576;28;20502;-79
2023/07/30 07:41:55;;;;;;;7.10;2.60;;;19.90;84.70;;;;;;5060317;28;20267;-78
2023/07/30 07:44:22;;;;;;;4.10;2.70;;;19.60;84.70;;;;;;5072414;28;20433;-79
2023/07/30 07:46:48;;;;;;;3.70;2.57;;;19.50;85.50;;;;;;5070549;28;20438;-80
2023/07/30 07:49:13;;;;;;;4.83;2.73;;;19.40;86.00;;;;;;5047665;28;20551;-77
2023/07/30 07:51:39;;;;;;;2.70;2.10;;;19.30;86.50;;;;;;5039945;28;20219;-79
2023/07/30 07:54:04;;;;;;;3.00;2.00;;;19.30;84.90;;;;;;5050164;28;20239;-78
2023/07/30 07:56:31;;;;;;;2.53;1.90;;;19.40;84.40;;;;;;5052443;28;20225;-79
2023/07/30 07:58:57;;;;;;;3.97;2.73;;;19.50;84.30;;;;;;5046392;28;20218;-80
2023/07/30 08:01:23;;;;;;;3.43;2.93;;;19.60;83.60;;;;;;5046716;28;20485;-80
2023/07/30 08:03:48;;;;;;;4.67;2.53;;;19.70;83.60;;;;;;5054023;28;20438;-78
2023/07/30 08:06:14;;;;;;;2.63;1.90;;;19.90;83.10;;;;;;5055965;28;20300;-79
2023/07/30 08:08:39;;;;;;;5.97;1.57;;;20.10;82.80;;;;;;5047752;28;20199;-78
2023/07/30 08:11:08;;;;;;;1.97;1.57;;;20.20;80.30;;;;;;5049839;28;20249;-79
2023/07/30 08:13:35;;;;;;;3.27;2.00;;;20.40;80.20;;;;;;5055143;28;20216;-78
2023/07/30 08:16:00;;;;;;;3.17;2.07;;;20.40;79.60;;;;;;5067237;28;20465;-77
2023/07/30 08:18:27;;;;;;;3.37;1.73;;;20.20;79.00;;;;;;5054380;28;21024;-80
2023/07/30 08:20:52;;;;;;;3.03;1.73;;;20.30;79.90;;;;;;5048474;28;20307;-78
2023/07/30 08:23:18;;;;;;;2.67;1.90;;;20.40;79.30;;;;;;5045501;28;20562;-79
2023/07/30 08:25:44;;;;;;;3.17;2.03;;;20.40;79.20;;;;;;5051286;28;20219;-78
2023/07/30 08:28:09;;;;;;;3.00;1.77;;;20.50;78.70;;;;;;5043327;28;20283;-77
2023/07/30 08:30:35;;;;;;;3.07;1.70;;;20.60;79.20;;;;;;5038349;28;20305;-79
2023/07/30 08:33:00;;;;;;;2.23;1.70;;;20.80;78.40;;;;;;5030327;28;20180;-78
2023/07/30 08:35:29;;;;;;;2.60;1.80;;;21.10;76.50;;;;;;5037073;28;20195;-79
2023/07/30 08:37:55;;;;;;;3.00;1.80;;;21.10;75.80;;;;;;5044781;28;20261;-78
2023/07/30 08:40:24;;;;;;;4.00;2.27;;;20.90;74.00;;;;;;5037406;28;20504;-79
2023/07/30 08:42:51;;;;;;;3.27;1.90;;;20.80;75.10;;;;;;5047230;28;20592;-79
2023/07/30 08:45:17;;;;;;;2.33;1.60;;;21.10;75.40;;;;;;5040532;28;20496;-78
2023/07/30 08:47:43;;;;;;;2.60;1.70;;;21.10;73.90;;;;;;5048360;28;20449;-78
2023/07/30 08:50:09;;;;;;;3.83;2.20;;;21.10;74.20;;;;;;5046673;28;20213;-79
2023/07/30 08:52:36;;;;;;;3.87;2.30;;;21.30;73.50;;;;;;5054665;28;20440;-78
2023/07/30 08:55:03;;;;;;;3.67;1.97;;;21.30;73.20;;;;;;5038196;28;20215;-78
2023/07/30 08:57:32;;;;;;;2.57;1.63;;;21.30;73.60;;;;;;5053241;28;20480;-78
2023/07/30 09:00:10;;;;;;;3.90;2.30;;;21.40;73.60;;;;;;5052920;28;20494;-77
2023/07/30 09:02:51;;;;;;;2.83;2.00;;;21.60;73.20;;;;;;5049070;28;20437;-76
2023/07/30 09:05:16;;;;;;;4.13;1.70;;;21.80;73.00;;;;;;5049046;28;20497;-78
2023/07/30 09:07:42;;;;;;;4.80;2.50;;;21.90;72.60;;;;;;5052633;28;20611;-78
2023/07/30 09:10:08;;;;;;;2.67;2.20;;;22.10;71.60;;;;;;5047098;28;20211;-78
2023/07/30 09:12:35;;;;;;;3.33;2.43;;;21.60;71.40;;;;;;5047922;28;20244;-77
2023/07/30 09:15:04;;;;;;;4.50;2.30;;;21.30;72.30;;;;;;5056765;28;20205;-76
2023/07/30 09:17:30;;;;;;;2.70;1.90;;;21.60;73.00;;;;;;5054586;28;20552;-78
2023/07/30 09:19:56;;;;;;;5.80;2.80;;;21.70;71.70;;;;;;5046497;28;20438;-75
2023/07/30 09:22:26;;;;;;;4.03;2.53;;;21.50;70.50;;;;;;5050882;28;20435;-77
2023/07/30 09:24:56;;;;;;;3.10;2.40;;;21.60;71.00;;;;;;5057029;28;20214;-77
2023/07/30 09:27:25;;;;;;;3.70;2.30;;;21.70;70.70;;;;;;5059730;28;20434;-77
2023/07/30 09:29:59;;;;;;;3.30;2.00;;;22.00;70.40;;;;;;5053564;28;20501;-78
2023/07/30 09:32:30;;;;;;;3.97;2.47;;;22.30;69.70;;;;;;5047031;28;20434;-78
2023/07/30 09:35:04;;;;;;;3.13;2.10;;;22.10;69.80;;;;;;5053529;28;20456;-77
2023/07/30 09:37:30;;;;;;;3.27;2.50;;;21.70;70.80;;;;;;5051011;28;20478;-77
2023/07/30 09:39:57;;;;;;;4.57;2.80;;;21.70;69.70;;;;;;5056558;28;20791;-78
2023/07/30 09:42:27;;;;;;;4.07;3.03;;;21.60;70.80;;;;;;5053304;28;20445;-77
2023/07/30 09:44:53;;;;;;;4.83;3.30;;;21.70;69.80;;;;;;5058354;28;20535;-76
2023/07/30 09:47:18;;;;;;;4.87;2.40;;;21.30;70.70;;;;;;5042321;28;20436;-77
2023/07/30 09:49:44;;;;;;;4.00;2.80;;;21.40;70.50;;;;;;5042011;28;20213;-78
2023/07/30 09:52:11;;;;;;;4.77;2.50;;;21.50;70.70;;;;;;5059185;28;20217;-77
2023/07/30 09:54:39;;;;;;;7.27;3.57;;;21.60;71.10;;;;;;5056100;28;20209;-79
2023/07/30 09:57:05;;;;;;;5.63;2.73;;;21.80;70.70;;;;;;5048289;28;20484;-78
2023/07/30 09:59:32;;;;;;;6.03;2.80;;;21.70;69.70;;;;;;5040261;28;20941;-79
2023/07/30 10:01:58;;;;;;;2.80;2.13;;;21.60;70.40;;;;;;5058179;28;20598;-78
2023/07/30 10:04:26;;;;;;;4.53;2.27;;;22.00;69.50;;;;;;5042433;28;20430;-78
2023/07/30 10:07:03;;;;;;;3.77;2.53;;;22.20;68.90;;;;;;5041755;28;20443;-78
2023/07/30 10:09:33;;;;;;;5.10;2.73;;;21.90;68.60;;;;;;5048719;28;20953;-76
2023/07/30 10:12:01;;;;;;;3.57;2.63;;;22.10;68.30;;;;;;5048185;28;20496;-76
2023/07/30 10:14:28;;;;;;;6.93;2.63;;;21.90;68.20;;;;;;5048012;28;20931;-79
2023/07/30 10:16:55;;;;;;;6.00;2.30;;;22.00;68.20;;;;;;5051825;28;20463;-76
2023/07/30 10:19:25;;;;;;;5.23;2.57;;;22.10;68.00;;;;;;5048242;28;20432;-78
2023/07/30 10:21:53;;;;;;;4.13;2.80;;;21.60;67.30;;;;;;5046374;28;20575;-77
2023/07/30 10:24:19;;;;;;;3.70;2.37;;;21.60;67.90;;;;;;5056365;28;20436;-78
2023/07/30 10:26:44;;;;;;;4.30;2.20;;;21.70;67.50;;;;;;5063474;28;20428;-79
2023/07/30 10:29:11;;;;;;;6.57;3.57;;;21.80;66.40;;;;;;5061328;28;20758;-79
2023/07/30 10:31:56;;;;;;;3.47;2.80;;;21.70;66.90;;;;;;5049799;28;20213;-79
2023/07/30 10:34:25;;;;;;;3.90;2.50;;;21.70;66.60;;;;;;5049528;28;20422;-78
2023/07/30 10:36:55;;;;;;;4.53;2.50;;;22.10;65.80;;;;;;5059414;28;20486;-78
2023/07/30 10:39:30;;;;;;;3.30;3.10;;;22.60;65.30;;;;;;5057641;28;20410;-78
2023/07/30 10:42:00;;;;;;;4.80;3.00;;;23.10;63.40;;;;;;5097663;22;20485;-79
2023/07/30 10:44:25;;;;;;;4.27;2.70;;;22.80;62.90;;;;;;5055505;28;20476;-79
2023/07/30 10:46:53;;;;;;;6.10;3.03;;;22.50;63.40;;;;;;5069250;28;21149;-79
2023/07/30 10:49:19;;;;;;;6.37;3.80;;;22.50;63.40;;;;;;5072604;28;20197;-77
2023/07/30 10:51:47;;;;;;;6.80;4.13;;;22.50;63.20;;;;;;5066058;28;20492;-78
2023/07/30 10:54:14;;;;;;;6.03;2.90;;;22.80;63.50;;;;;;5071980;28;20187;-78
2023/07/30 10:56:41;;;;;;;5.60;2.97;;;23.10;62.50;;;;;;5081859;28;20481;-79
2023/07/30 10:59:07;;;;;;;7.90;4.13;;;23.20;61.30;;;;;;5072472;28;20460;-77
2023/07/30 11:01:40;;;;;;;9.70;3.43;;;23.10;61.20;;;;;;5061156;28;20453;-78
2023/07/30 11:04:10;;;;;;;5.40;3.77;;;22.70;63.10;;;;;;5064056;28;20453;-77
2023/07/30 11:06:37;;;;;;;5.57;3.43;;;23.00;63.40;;;;;;5060827;28;20474;-78
2023/07/30 11:09:03;;;;;;;5.40;2.90;;;23.40;63.10;;;;;;5077939;28;20436;-78
2023/07/30 11:11:32;;;;;;;5.20;2.80;;;23.70;61.50;;;;;;5069452;28;20467;-77
2023/07/30 11:13:59;;;;;;;4.07;2.63;;;23.70;61.50;;;;;;5070136;28;20445;-78
2023/07/30 11:16:25;;;;;;;5.77;3.33;;;23.00;61.90;;;;;;5066060;28;20486;-77
2023/07/30 11:18:50;;;;;;;5.37;2.57;;;22.40;63.10;;;;;;5061376;28;20922;-78
2023/07/30 11:21:18;;;;;;;5.77;2.83;;;22.50;63.20;;;;;;5053165;28;20211;-76
2023/07/30 11:23:46;;;;;;;4.73;2.40;;;22.30;63.90;;;;;;5061289;28;20206;-76
2023/07/30 11:26:19;;;;;;;4.30;2.80;;;22.50;63.20;;;;;;5064958;28;20528;-76
2023/07/30 11:28:45;;;;;;;4.57;2.80;;;22.60;62.80;;;;;;5058848;28;20453;-77
2023/07/30 11:31:19;;;;;;;6.00;2.97;;;22.50;63.20;;;;;;5046790;28;20482;-76
2023/07/30 11:33:47;;;;;;;5.77;3.17;;;22.50;63.50;;;;;;5057742;28;20449;-77
2023/07/30 11:36:16;;;;;;;5.13;3.57;;;22.60;62.90;;;;;;5056746;28;20505;-77
2023/07/30 11:38:42;;;;;;;4.67;2.70;;;22.70;63.50;;;;;;5071707;28;20441;-77
2023/07/30 11:41:13;;;;;;;4.80;2.80;;;22.70;63.90;;;;;;5068064;28;20506;-80
2023/07/30 11:43:44;;;;;;;3.93;3.20;;;23.10;62.60;;;;;;5073530;28;20447;-79
2023/07/30 11:46:18;;;;;;;4.53;2.80;;;23.10;63.10;;;;;;5072791;28;20440;-78
2023/07/30 11:48:47;;;;;;;4.67;2.93;;;22.20;65.30;;;;;;5065536;28;20660;-78
2023/07/30 11:51:25;;;;;;;4.40;3.47;;;22.10;65.30;;;;;;5060175;28;20598;-79
2023/07/30 11:53:56;;;;;;;6.33;3.37;;;21.90;65.70;;;;;;5078583;28;20664;-77
2023/07/30 11:56:27;;;;;;;4.17;3.13;;;22.10;66.00;;;;;;5053910;28;20436;-78
2023/07/30 11:59:01;;;;;;;4.50;3.00;;;21.90;65.60;;;;;;5068725;28;20432;-77
2023/07/30 12:01:30;;;;;;;6.90;3.30;;;22.20;65.10;;;;;;5056494;28;20900;-79
2023/07/30 12:03:56;;;;;;;5.00;2.60;;;22.40;64.50;;;;;;5064015;28;20445;-78
2023/07/30 12:06:22;;;;;;;4.70;2.87;;;22.30;64.70;;;;;;5073426;28;20432;-78
2023/07/30 12:08:51;;;;;;;6.37;3.33;;;22.30;64.20;;;;;;5073162;28;20514;-78
2023/07/30 12:11:24;;;;;;;4.73;3.10;;;21.90;64.40;;;;;;5070047;28;20218;-80
2023/07/30 12:13:54;;;;;;;5.50;2.87;;;22.30;64.50;;;;;;5078119;28;20436;-78
2023/07/30 12:16:20;;;;;;;7.47;2.93;;;22.80;64.10;;;;;;5049460;28;20439;-78
2023/07/30 12:18:45;;;;;;;6.00;3.00;;;22.80;63.50;;;;;;5073848;28;20967;-77
2023/07/30 12:21:12;;;;;;;3.00;2.33;;;22.90;62.90;;;;;;5069817;28;20207;-78
2023/07/30 12:23:38;;;;;;;7.03;3.77;;;23.20;63.40;;;;;;5070207;28;20183;-79
2023/07/30 12:26:04;;;;;;;8.50;3.27;;;23.00;63.70;;;;;;5068376;28;20458;-78
2023/07/30 12:28:34;;;;;;;8.53;3.80;;;23.60;62.30;;;;;;5062611;28;20774;-78
2023/07/30 12:31:01;;;;;;;6.07;3.63;;;23.50;62.50;;;;;;5063858;28;20211;-78
2023/07/30 12:33:26;;;;;;;3.60;2.70;;;23.00;63.50;;;;;;5065761;28;20955;-77
2023/07/30 12:35:53;;;;;;;6.07;3.17;;;23.10;63.10;;;;;;5067459;28;20448;-78
2023/07/30 12:38:19;;;;;;;5.43;3.10;;;23.60;63.20;;;;;;5074251;28;20233;-77
2023/07/30 12:40:44;;;;;;;3.80;2.93;;;24.00;61.70;;;;;;5070207;28;20525;-77
2023/07/30 12:43:10;;;;;;;5.00;2.70;;;23.50;61.90;;;;;;5068796;28;20810;-78